createdAt,value
2018-01-29T00:00:37.422Z,91.2
2018-01-29T00:01:40.211Z,91.2
2018-01-29T00:02:42.707Z,91.2
2018-01-29T00:03:45.498Z,91.2
2018-01-29T00:04:48.002Z,91.2
2018-01-29T00:05:50.494Z,91.1
2018-01-29T00:06:52.989Z,91.2
2018-01-29T00:07:55.492Z,91.2
2018-01-29T00:08:58.000Z,91.2
2018-01-29T00:10:00.795Z,91.2
2018-01-29T00:11:03.568Z,91.2
2018-01-29T00:12:06.070Z,91.2
2018-01-29T00:13:08.565Z,91.3
2018-01-29T00:14:11.070Z,91.3
2018-01-29T00:15:13.852Z,91.3
2018-01-29T00:16:16.352Z,91.4
2018-01-29T00:17:18.846Z,91.4
2018-01-29T00:18:21.359Z,91.3
2018-01-29T00:19:23.860Z,91.2
2018-01-29T00:20:26.358Z,91.2
2018-01-29T00:21:29.137Z,91.2
2018-01-29T00:22:31.643Z,91.2
2018-01-29T00:23:34.141Z,91.1
2018-01-29T00:24:36.648Z,91.1
2018-01-29T00:25:39.132Z,91.2
2018-01-29T00:26:41.636Z,91.2
2018-01-29T00:27:44.137Z,91.2
2018-01-29T00:28:46.636Z,91.2
2018-01-29T00:29:49.124Z,91.2
2018-01-29T00:30:51.619Z,91.2
2018-01-29T00:31:54.106Z,91.2
2018-01-29T00:32:56.626Z,91.2
2018-01-29T00:33:59.125Z,91.2
2018-01-29T00:35:01.620Z,91.2
2018-01-29T00:36:04.122Z,91.3
2018-01-29T00:37:06.624Z,91.2
2018-01-29T00:38:09.122Z,91.2
2018-01-29T00:39:11.614Z,91.1
2018-01-29T00:40:14.125Z,91.1
2018-01-29T00:41:16.916Z,91.1
2018-01-29T00:42:19.682Z,91
2018-01-29T00:43:22.190Z,91.1
2018-01-29T00:44:24.688Z,91
2018-01-29T00:45:27.191Z,91.1
2018-01-29T00:46:29.700Z,91.2
2018-01-29T00:47:32.196Z,91.2
2018-01-29T00:48:34.983Z,91.3
2018-01-29T00:49:37.490Z,91.2
2018-01-29T00:50:39.985Z,91.2
2018-01-29T00:51:42.775Z,91.3
2018-01-29T00:52:45.279Z,91.3
2018-01-29T00:53:47.777Z,91.2
2018-01-29T00:54:50.285Z,91.2
2018-01-29T00:55:52.791Z,91.2
2018-01-29T00:56:55.278Z,91.3
2018-01-29T00:57:57.783Z,91.3
2018-01-29T00:59:00.277Z,91.3
2018-01-29T01:00:02.774Z,91.3
2018-01-29T01:01:05.271Z,91.2
2018-01-29T01:02:07.768Z,91.2
2018-01-29T01:03:10.264Z,91.3
2018-01-29T01:04:12.775Z,91.1
2018-01-29T01:05:15.266Z,91.1
2018-01-29T01:06:17.777Z,91.2
2018-01-29T01:07:20.272Z,91.3
2018-01-29T01:08:23.352Z,91.3
2018-01-29T01:09:25.853Z,91.2
2018-01-29T01:10:28.646Z,91.2
2018-01-29T01:11:31.142Z,91.2
2018-01-29T01:12:33.643Z,91.2
2018-01-29T01:13:36.140Z,91.2
2018-01-29T01:14:38.637Z,91.2
2018-01-29T01:15:41.164Z,91.4
2018-01-29T01:16:43.656Z,91.4
2018-01-29T01:17:46.160Z,91.4
2018-01-29T01:18:48.656Z,91.4
2018-01-29T01:19:51.439Z,91.2
2018-01-29T01:20:53.950Z,91.3
2018-01-29T01:21:56.453Z,91.3
2018-01-29T01:22:58.932Z,91.2
2018-01-29T01:24:01.439Z,91.2
2018-01-29T01:25:03.944Z,91.2
2018-01-29T01:26:06.438Z,91.3
2018-01-29T01:27:08.933Z,91.3
2018-01-29T01:28:11.424Z,91.2
2018-01-29T01:29:13.916Z,91.3
2018-01-29T01:30:16.428Z,91.2
2018-01-29T01:31:18.923Z,91.3
2018-01-29T01:32:21.422Z,91.3
2018-01-29T01:33:24.203Z,91.3
2018-01-29T01:34:26.711Z,91.3
2018-01-29T01:35:29.204Z,91.2
2018-01-29T01:36:31.697Z,91.2
2018-01-29T01:37:34.202Z,91.1
2018-01-29T01:38:36.704Z,91.1
2018-01-29T01:39:39.199Z,91.1
2018-01-29T01:40:41.710Z,91.1
2018-01-29T01:41:44.205Z,91.1
2018-01-29T01:42:46.698Z,91.2
2018-01-29T01:43:49.208Z,91.2
2018-01-29T01:44:52.013Z,91.3
2018-01-29T01:45:54.513Z,91.3
2018-01-29T01:46:57.017Z,91.2
2018-01-29T01:47:59.509Z,91.2
2018-01-29T01:49:02.005Z,91.1
2018-01-29T01:50:04.507Z,91.1
2018-01-29T01:51:07.009Z,91.1
2018-01-29T01:52:09.511Z,91
2018-01-29T01:53:12.010Z,91.1
2018-01-29T01:54:14.785Z,91.1
2018-01-29T01:55:17.287Z,91.1
2018-01-29T01:56:19.790Z,91.1
2018-01-29T01:57:22.279Z,91.2
2018-01-29T01:58:24.785Z,91.1
2018-01-29T01:59:27.573Z,91.1
2018-01-29T02:00:30.071Z,91.1
2018-01-29T02:01:32.577Z,91.1
2018-01-29T02:02:35.076Z,91.2
2018-01-29T02:03:37.576Z,91.1
2018-01-29T02:04:40.074Z,91.1
2018-01-29T02:05:42.857Z,91
2018-01-29T02:06:45.368Z,91
2018-01-29T02:07:48.166Z,90.9
2018-01-29T02:08:50.673Z,91
2018-01-29T02:09:53.178Z,91
2018-01-29T02:10:55.672Z,91
2018-01-29T02:11:58.175Z,90.9
2018-01-29T02:13:00.673Z,91
2018-01-29T02:14:03.163Z,90.9
2018-01-29T02:15:05.972Z,91.1
2018-01-29T02:16:08.779Z,91.1
2018-01-29T02:17:11.272Z,91
2018-01-29T02:18:13.776Z,91.1
2018-01-29T02:19:16.282Z,91.1
2018-01-29T02:20:18.782Z,91.2
2018-01-29T02:21:21.279Z,91.1
2018-01-29T02:22:23.763Z,91.1
2018-01-29T02:23:26.570Z,91
2018-01-29T02:24:29.063Z,91
2018-01-29T02:25:31.562Z,91
2018-01-29T02:26:34.063Z,91.1
2018-01-29T02:27:36.560Z,91.1
2018-01-29T02:28:39.062Z,91.1
2018-01-29T02:29:41.576Z,91.1
2018-01-29T02:30:44.073Z,91.2
2018-01-29T02:31:46.568Z,91.2
2018-01-29T02:32:49.352Z,91.3
2018-01-29T02:33:51.853Z,91.3
2018-01-29T02:34:54.358Z,91.2
2018-01-29T02:35:57.150Z,91.1
2018-01-29T02:36:59.649Z,91.1
2018-01-29T02:38:02.161Z,91.2
2018-01-29T02:39:04.941Z,91.1
2018-01-29T02:40:07.737Z,91.1
2018-01-29T02:41:10.243Z,91.2
2018-01-29T02:42:12.728Z,91.2
2018-01-29T02:43:15.220Z,91.2
2018-01-29T02:44:17.721Z,91.2
2018-01-29T02:45:20.215Z,91.3
2018-01-29T02:46:22.723Z,91.3
2018-01-29T02:47:25.230Z,91.2
2018-01-29T02:48:27.708Z,91.2
2018-01-29T02:49:30.794Z,91.3
2018-01-29T02:50:33.588Z,91.3
2018-01-29T02:51:36.382Z,91.3
2018-01-29T02:52:39.215Z,91.3
2018-01-29T02:53:41.714Z,91.3
2018-01-29T02:54:44.201Z,91.3
2018-01-29T02:55:46.716Z,91.3
2018-01-29T02:56:49.215Z,91.3
2018-01-29T02:57:51.718Z,91.3
2018-01-29T02:58:54.214Z,91.3
2018-01-29T02:59:56.713Z,91.4
2018-01-29T03:00:59.527Z,91.3
2018-01-29T03:02:02.025Z,91.3
2018-01-29T03:03:04.508Z,91.3
2018-01-29T03:04:07.018Z,91.2
2018-01-29T03:05:09.509Z,91.3
2018-01-29T03:06:12.013Z,91.3
2018-01-29T03:07:14.795Z,91.4
2018-01-29T03:08:17.298Z,91.4
2018-01-29T03:09:19.802Z,91.4
2018-01-29T03:10:22.287Z,91.3
2018-01-29T03:11:24.789Z,91.4
2018-01-29T03:12:27.284Z,91.4
2018-01-29T03:13:29.781Z,91.4
2018-01-29T03:14:32.279Z,91.3
2018-01-29T03:15:34.775Z,91.4
2018-01-29T03:16:37.275Z,91.4
2018-01-29T03:17:39.784Z,91.4
2018-01-29T03:18:42.278Z,91.4
2018-01-29T03:19:45.065Z,91.2
2018-01-29T03:20:47.571Z,91.3
2018-01-29T03:21:50.062Z,91.3
2018-01-29T03:22:52.566Z,91.3
2018-01-29T03:23:55.066Z,91.3
2018-01-29T03:24:57.562Z,91.3
2018-01-29T03:26:00.063Z,91.3
2018-01-29T03:27:02.563Z,91.3
2018-01-29T03:28:05.048Z,91.4
2018-01-29T03:29:07.549Z,91.4
2018-01-29T03:30:10.052Z,91.4
2018-01-29T03:31:12.538Z,91.4
2018-01-29T03:32:15.047Z,91.3
2018-01-29T03:33:17.551Z,91.3
2018-01-29T03:34:20.038Z,91.3
2018-01-29T03:35:22.546Z,91.3
2018-01-29T03:36:25.328Z,91.3
2018-01-29T03:37:27.838Z,91.3
2018-01-29T03:38:30.333Z,91.3
2018-01-29T03:39:32.831Z,91.3
2018-01-29T03:40:35.332Z,91.3
2018-01-29T03:41:38.133Z,91.4
2018-01-29T03:42:40.629Z,91.3
2018-01-29T03:43:43.127Z,91.2
2018-01-29T03:44:45.620Z,91.2
2018-01-29T03:45:48.705Z,91.2
2018-01-29T03:46:51.205Z,91.2
2018-01-29T03:47:53.707Z,91.2
2018-01-29T03:48:56.207Z,91.3
2018-01-29T03:49:58.996Z,91.3
2018-01-29T03:51:01.785Z,91.2
2018-01-29T03:52:04.290Z,91.3
2018-01-29T03:53:07.069Z,91.3
2018-01-29T03:54:09.562Z,91.2
2018-01-29T03:55:12.374Z,91.3
2018-01-29T03:56:14.855Z,91.3
2018-01-29T03:57:17.359Z,91.2
2018-01-29T03:58:19.854Z,91.2
2018-01-29T03:59:22.350Z,91.2
2018-01-29T04:00:24.855Z,91.2
2018-01-29T04:01:27.359Z,91.2
2018-01-29T04:02:29.862Z,91.2
2018-01-29T04:03:32.354Z,91.2
2018-01-29T04:04:34.854Z,91.1
2018-01-29T04:05:37.351Z,91.1
2018-01-29T04:06:39.848Z,91.1
2018-01-29T04:07:42.352Z,91.1
2018-01-29T04:08:44.850Z,91.2
2018-01-29T04:09:47.339Z,91.2
2018-01-29T04:10:50.133Z,91.2
2018-01-29T04:11:52.625Z,91
2018-01-29T04:12:55.138Z,91.1
2018-01-29T04:13:57.628Z,91.1
2018-01-29T04:15:00.129Z,91.2
2018-01-29T04:16:02.621Z,91.2
2018-01-29T04:17:05.137Z,91.2
2018-01-29T04:18:07.621Z,91.2
2018-01-29T04:19:10.136Z,91.2
2018-01-29T04:20:12.635Z,91.1
2018-01-29T04:21:15.117Z,91.1
2018-01-29T04:22:17.620Z,91.1
2018-01-29T04:23:20.112Z,91.1
2018-01-29T04:24:22.613Z,91.1
2018-01-29T04:25:25.123Z,91.1
2018-01-29T04:26:27.901Z,91.1
2018-01-29T04:27:30.402Z,91.1
2018-01-29T04:28:32.913Z,91.1
2018-01-29T04:29:35.410Z,91
2018-01-29T04:30:37.908Z,91
2018-01-29T04:31:40.407Z,91
2018-01-29T04:32:42.900Z,91
2018-01-29T04:33:45.386Z,91
2018-01-29T04:34:47.881Z,91
2018-01-29T04:35:50.390Z,90.9
2018-01-29T04:36:52.884Z,91
2018-01-29T04:37:55.369Z,90.9
2018-01-29T04:38:57.870Z,90.9
2018-01-29T04:40:00.655Z,91
2018-01-29T04:41:03.215Z,91
2018-01-29T04:42:05.721Z,91
2018-01-29T04:43:08.198Z,91.1
2018-01-29T04:44:10.698Z,91
2018-01-29T04:45:13.212Z,91.1
2018-01-29T04:46:15.704Z,91.1
2018-01-29T04:47:18.211Z,91.1
2018-01-29T04:48:20.993Z,91.1
2018-01-29T04:49:23.496Z,91.1
2018-01-29T04:50:25.997Z,91.2
2018-01-29T04:51:28.497Z,91.2
2018-01-29T04:52:30.976Z,91.2
2018-01-29T04:53:33.482Z,91.2
2018-01-29T04:54:36.267Z,91.2
2018-01-29T04:55:38.768Z,91.2
2018-01-29T04:56:41.569Z,91.2
2018-01-29T04:57:44.357Z,91.3
2018-01-29T04:58:47.145Z,91.3
2018-01-29T04:59:49.946Z,91.3
2018-01-29T05:00:52.436Z,91.2
2018-01-29T05:01:54.940Z,91.2
2018-01-29T05:02:57.433Z,91.3
2018-01-29T05:03:59.936Z,91.3
2018-01-29T05:05:02.436Z,91.3
2018-01-29T05:06:05.226Z,91.2
2018-01-29T05:07:07.707Z,91.2
2018-01-29T05:08:10.497Z,91.2
2018-01-29T05:09:13.014Z,91.2
2018-01-29T05:10:15.511Z,91.2
2018-01-29T05:11:18.016Z,91.2
2018-01-29T05:12:20.508Z,91.2
2018-01-29T05:13:23.001Z,91.2
2018-01-29T05:14:25.507Z,91.1
2018-01-29T05:15:28.085Z,91.1
2018-01-29T05:16:30.612Z,91.1
2018-01-29T05:17:33.082Z,91.1
2018-01-29T05:18:35.571Z,91.1
2018-01-29T05:19:38.064Z,91
2018-01-29T05:20:40.569Z,91.1
2018-01-29T05:21:43.066Z,91.1
2018-01-29T05:22:45.565Z,91.1
2018-01-29T05:23:48.069Z,91.1
2018-01-29T05:24:50.848Z,91
2018-01-29T05:25:53.365Z,91
2018-01-29T05:26:55.866Z,91.1
2018-01-29T05:27:58.371Z,91
2018-01-29T05:29:00.863Z,91
2018-01-29T05:30:03.354Z,91.1
2018-01-29T05:31:05.855Z,91.1
2018-01-29T05:32:08.349Z,91.1
2018-01-29T05:33:10.849Z,91.1
2018-01-29T05:34:13.349Z,91.1
2018-01-29T05:35:15.848Z,91.1
2018-01-29T05:36:18.640Z,91.2
2018-01-29T05:37:21.134Z,91.2
2018-01-29T05:38:23.629Z,91.2
2018-01-29T05:39:26.131Z,91.2
2018-01-29T05:40:28.628Z,91.1
2018-01-29T05:41:31.113Z,91.1
2018-01-29T05:42:33.610Z,91.2
2018-01-29T05:43:36.390Z,91.2
2018-01-29T05:44:39.172Z,91.2
2018-01-29T05:45:41.673Z,91.3
2018-01-29T05:46:44.171Z,91.3
2018-01-29T05:47:46.666Z,91.3
2018-01-29T05:48:49.164Z,91.2
2018-01-29T05:49:51.649Z,91.3
2018-01-29T05:50:54.153Z,91.2
2018-01-29T05:51:57.261Z,91.2
2018-01-29T05:52:59.757Z,91.2
2018-01-29T05:54:02.251Z,91.2
2018-01-29T05:55:04.753Z,91.2
2018-01-29T05:56:07.253Z,91.2
2018-01-29T05:57:09.755Z,91.2
2018-01-29T05:58:12.258Z,91.3
2018-01-29T05:59:14.739Z,91.2
2018-01-29T06:00:17.237Z,91.2
2018-01-29T06:01:19.749Z,91.1
2018-01-29T06:02:22.241Z,91.2
2018-01-29T06:03:24.738Z,91.2
2018-01-29T06:04:27.827Z,91.3
2018-01-29T06:05:30.330Z,91.3
2018-01-29T06:06:32.809Z,91.2
2018-01-29T06:07:35.314Z,91.2
2018-01-29T06:08:37.816Z,91.2
2018-01-29T06:09:40.597Z,91.1
2018-01-29T06:10:43.406Z,91.1
2018-01-29T06:11:45.904Z,91.1
2018-01-29T06:12:48.390Z,91.1
2018-01-29T06:13:50.899Z,91.1
2018-01-29T06:14:53.393Z,91.1
2018-01-29T06:15:55.898Z,91.2
2018-01-29T06:16:58.397Z,91.2
2018-01-29T06:18:00.881Z,91.2
2018-01-29T06:19:03.387Z,91.1
2018-01-29T06:20:05.888Z,91.1
2018-01-29T06:21:08.662Z,91.1
2018-01-29T06:22:11.164Z,91.1
2018-01-29T06:23:13.659Z,91.1
2018-01-29T06:24:16.145Z,91.1
2018-01-29T06:25:18.662Z,91.1
2018-01-29T06:26:21.160Z,91.1
2018-01-29T06:27:23.649Z,91
2018-01-29T06:28:26.157Z,91.1
2018-01-29T06:29:28.655Z,91
2018-01-29T06:30:31.153Z,90.9
2018-01-29T06:31:33.645Z,91
2018-01-29T06:32:36.160Z,91
2018-01-29T06:33:38.658Z,91.1
2018-01-29T06:34:41.445Z,91
2018-01-29T06:35:43.943Z,91
2018-01-29T06:36:46.438Z,91.1
2018-01-29T06:37:48.941Z,91.1
2018-01-29T06:38:51.735Z,91.1
2018-01-29T06:39:54.223Z,91.1
2018-01-29T06:40:56.720Z,91.1
2018-01-29T06:41:59.223Z,91.1
2018-01-29T06:43:01.726Z,91.1
2018-01-29T06:44:04.224Z,91.1
2018-01-29T06:45:07.005Z,91.1
2018-01-29T06:46:09.502Z,91
2018-01-29T06:47:12.011Z,91.1
2018-01-29T06:48:14.518Z,91
2018-01-29T06:49:17.290Z,91.1
2018-01-29T06:50:19.796Z,91.1
2018-01-29T06:51:22.298Z,91.1
2018-01-29T06:52:24.796Z,91
2018-01-29T06:53:27.295Z,91.1
2018-01-29T06:54:29.789Z,91.1
2018-01-29T06:55:32.283Z,91.1
2018-01-29T06:56:34.789Z,91
2018-01-29T06:57:37.287Z,91.1
2018-01-29T06:58:39.782Z,91
2018-01-29T06:59:42.274Z,91
2018-01-29T07:00:44.777Z,91
2018-01-29T07:01:47.275Z,91
2018-01-29T07:02:50.094Z,91.1
2018-01-29T07:03:52.564Z,91.1
2018-01-29T07:04:55.340Z,91.1
2018-01-29T07:05:57.847Z,91.1
2018-01-29T07:07:00.345Z,91
2018-01-29T07:08:03.119Z,91
2018-01-29T07:09:05.623Z,91.1
2018-01-29T07:10:08.124Z,91.1
2018-01-29T07:11:10.621Z,91
2018-01-29T07:12:13.126Z,91.1
2018-01-29T07:13:15.620Z,91.1
2018-01-29T07:14:18.106Z,91.1
2018-01-29T07:15:20.623Z,91.1
2018-01-29T07:16:23.412Z,91
2018-01-29T07:17:25.907Z,91
2018-01-29T07:18:28.406Z,91.1
2018-01-29T07:19:30.896Z,91.1
2018-01-29T07:20:33.413Z,91.1
2018-01-29T07:21:35.912Z,91.1
2018-01-29T07:22:38.401Z,91.1
2018-01-29T07:23:40.897Z,91.1
2018-01-29T07:24:43.391Z,91
2018-01-29T07:25:45.893Z,91
2018-01-29T07:26:48.393Z,91
2018-01-29T07:27:50.887Z,91.1
2018-01-29T07:28:53.387Z,91.1
2018-01-29T07:29:55.899Z,91.1
2018-01-29T07:30:58.385Z,91
2018-01-29T07:32:00.888Z,91
2018-01-29T07:33:03.375Z,91.1
2018-01-29T07:34:05.870Z,91.1
2018-01-29T07:35:08.366Z,91.1
2018-01-29T07:36:10.867Z,91
2018-01-29T07:37:13.370Z,91
2018-01-29T07:38:15.867Z,91.1
2018-01-29T07:39:18.371Z,91.1
2018-01-29T07:40:21.165Z,91.1
2018-01-29T07:41:23.660Z,91.1
2018-01-29T07:42:26.158Z,91.1
2018-01-29T07:43:28.952Z,91.1
2018-01-29T07:44:31.742Z,91.1
2018-01-29T07:45:34.528Z,91.1
2018-01-29T07:46:37.025Z,91.1
2018-01-29T07:47:39.516Z,91.1
2018-01-29T07:48:42.021Z,91.1
2018-01-29T07:49:44.515Z,91.1
2018-01-29T07:50:47.021Z,91
2018-01-29T07:51:49.525Z,91
2018-01-29T07:52:52.017Z,91.1
2018-01-29T07:53:54.516Z,91.1
2018-01-29T07:54:57.023Z,91.1
2018-01-29T07:55:59.507Z,91.1
2018-01-29T07:57:02.011Z,91.1
2018-01-29T07:58:04.521Z,91.1
2018-01-29T07:59:07.589Z,91
2018-01-29T08:00:10.091Z,91.1
2018-01-29T08:01:12.594Z,91.1
2018-01-29T08:02:15.090Z,91.1
2018-01-29T08:03:17.576Z,91.1
2018-01-29T08:04:20.078Z,91.2
2018-01-29T08:05:22.587Z,91.2
2018-01-29T08:06:25.081Z,91.2
2018-01-29T08:07:27.576Z,91.1
2018-01-29T08:08:30.078Z,91.1
2018-01-29T08:09:32.580Z,91.1
2018-01-29T08:10:35.077Z,91.1
2018-01-29T08:11:37.581Z,91.1
2018-01-29T08:12:40.347Z,91.1
2018-01-29T08:13:42.852Z,91.1
2018-01-29T08:14:45.348Z,91.1
2018-01-29T08:15:48.140Z,91.2
2018-01-29T08:16:50.638Z,91.2
2018-01-29T08:17:53.126Z,91.1
2018-01-29T08:18:55.618Z,91.1
2018-01-29T08:19:58.136Z,91.1
2018-01-29T08:21:00.635Z,91.2
2018-01-29T08:22:03.129Z,91.1
2018-01-29T08:23:05.630Z,91.1
2018-01-29T08:24:08.128Z,91.1
2018-01-29T08:25:10.633Z,91.1
2018-01-29T08:26:13.423Z,91.1
2018-01-29T08:27:15.909Z,91.1
2018-01-29T08:28:18.402Z,91.1
2018-01-29T08:29:20.895Z,91
2018-01-29T08:30:23.403Z,91.1
2018-01-29T08:31:25.889Z,91.1
2018-01-29T08:32:28.394Z,91.1
2018-01-29T08:33:31.189Z,91.1
2018-01-29T08:34:33.683Z,91.1
2018-01-29T08:35:36.182Z,91.2
2018-01-29T08:36:38.982Z,91.2
2018-01-29T08:37:41.756Z,91.1
2018-01-29T08:38:44.274Z,91.2
2018-01-29T08:39:46.769Z,91.2
2018-01-29T08:40:49.263Z,91.2
2018-01-29T08:41:51.760Z,91.2
2018-01-29T08:42:54.291Z,91.3
2018-01-29T08:43:57.079Z,91.2
2018-01-29T08:44:59.597Z,91.1
2018-01-29T08:46:02.081Z,91.1
2018-01-29T08:47:04.581Z,91.1
2018-01-29T08:48:07.075Z,91.2
2018-01-29T08:49:09.576Z,91.2
2018-01-29T08:50:12.073Z,91.1
2018-01-29T08:51:14.582Z,91.1
2018-01-29T08:52:17.638Z,91
2018-01-29T08:53:20.149Z,91.1
2018-01-29T08:54:22.646Z,91.1
2018-01-29T08:55:25.140Z,91.1
2018-01-29T08:56:27.642Z,91
2018-01-29T08:57:30.431Z,91
2018-01-29T08:58:32.922Z,91.1
2018-01-29T08:59:35.992Z,91.1
2018-01-29T09:00:38.777Z,91.1
2018-01-29T09:01:41.271Z,91.2
2018-01-29T09:02:44.080Z,91.1
2018-01-29T09:03:46.578Z,91.1
2018-01-29T09:04:49.059Z,91.1
2018-01-29T09:05:51.557Z,91.1
2018-01-29T09:06:54.079Z,91.1
2018-01-29T09:07:56.866Z,91.2
2018-01-29T09:08:59.362Z,91.2
2018-01-29T09:10:02.143Z,91.2
2018-01-29T09:11:04.643Z,91.1
2018-01-29T09:12:07.155Z,91.3
2018-01-29T09:13:09.651Z,91.3
2018-01-29T09:14:12.148Z,91.3
2018-01-29T09:15:14.645Z,91.2
2018-01-29T09:16:17.138Z,91.2
2018-01-29T09:17:19.641Z,91.2
2018-01-29T09:18:22.426Z,91.1
2018-01-29T09:19:24.915Z,91.1
2018-01-29T09:20:27.415Z,91.1
2018-01-29T09:21:29.923Z,91.1
2018-01-29T09:22:32.420Z,91.1
2018-01-29T09:23:35.208Z,91.1
2018-01-29T09:24:37.705Z,91.1
2018-01-29T09:25:40.198Z,91
2018-01-29T09:26:42.718Z,91.1
2018-01-29T09:27:45.507Z,91.1
2018-01-29T09:28:47.997Z,91
2018-01-29T09:29:50.491Z,91
2018-01-29T09:30:52.998Z,91
2018-01-29T09:31:55.496Z,91
2018-01-29T09:32:57.994Z,90.9
2018-01-29T09:34:00.498Z,91
2018-01-29T09:35:02.999Z,91.1
2018-01-29T09:36:05.478Z,91.2
2018-01-29T09:37:07.996Z,91.1
2018-01-29T09:38:10.478Z,91.2
2018-01-29T09:39:13.292Z,91.3
2018-01-29T09:40:15.795Z,91.3
2018-01-29T09:41:18.289Z,91.3
2018-01-29T09:42:20.788Z,91.1
2018-01-29T09:43:23.592Z,91.1
2018-01-29T09:44:26.081Z,91.1
2018-01-29T09:45:28.587Z,91.1
2018-01-29T09:46:31.089Z,91.1
2018-01-29T09:47:33.599Z,91.2
2018-01-29T09:48:36.089Z,91.1
2018-01-29T09:49:38.590Z,91.1
2018-01-29T09:50:41.385Z,91.1
2018-01-29T09:51:44.478Z,91
2018-01-29T09:52:46.962Z,91
2018-01-29T09:53:49.748Z,91.1
2018-01-29T09:54:52.536Z,91.1
2018-01-29T09:55:55.323Z,91.2
2018-01-29T09:56:57.825Z,91.2
2018-01-29T09:58:00.331Z,91.1
2018-01-29T09:59:02.828Z,91
2018-01-29T10:00:05.614Z,91
2018-01-29T10:01:08.105Z,91
2018-01-29T10:02:10.623Z,91
2018-01-29T10:03:13.106Z,91
2018-01-29T10:04:15.605Z,91.1
2018-01-29T10:05:18.159Z,91.2
2018-01-29T10:06:21.242Z,91.1
2018-01-29T10:07:23.743Z,91
2018-01-29T10:08:26.247Z,90.9
2018-01-29T10:09:28.741Z,90.9
2018-01-29T10:10:31.245Z,91
2018-01-29T10:11:33.745Z,91.1
2018-01-29T10:12:36.238Z,91.1
2018-01-29T10:13:38.735Z,91.1
2018-01-29T10:14:41.224Z,91.1
2018-01-29T10:15:43.727Z,91
2018-01-29T10:16:46.530Z,91.1
2018-01-29T10:17:49.064Z,91
2018-01-29T10:18:51.828Z,90.9
2018-01-29T10:19:54.631Z,91
2018-01-29T10:20:57.200Z,91.1
2018-01-29T10:22:00.327Z,91.1
2018-01-29T10:23:03.079Z,91.1
2018-01-29T10:24:05.755Z,91
2018-01-29T10:25:08.264Z,91.1
2018-01-29T10:26:10.768Z,91.1
2018-01-29T10:27:13.273Z,91.1
2018-01-29T10:28:16.068Z,91.1
2018-01-29T10:29:18.563Z,91.2
2018-01-29T10:30:21.059Z,91.3
2018-01-29T10:31:23.844Z,91.2
2018-01-29T10:32:26.339Z,91.3
2018-01-29T10:33:28.853Z,91.2
2018-01-29T10:34:31.348Z,91
2018-01-29T10:35:33.841Z,91.1
2018-01-29T10:36:36.348Z,91.1
2018-01-29T10:37:38.844Z,91.1
2018-01-29T10:38:41.345Z,91
2018-01-29T10:39:43.840Z,91.2
2018-01-29T10:40:46.326Z,91
2018-01-29T10:41:48.834Z,91.1
2018-01-29T10:42:51.330Z,91
2018-01-29T10:43:53.832Z,91.1
2018-01-29T10:44:56.340Z,91.1
2018-01-29T10:45:59.124Z,91.1
2018-01-29T10:47:01.620Z,91.1
2018-01-29T10:48:04.127Z,91.1
2018-01-29T10:49:06.617Z,91.2
2018-01-29T10:50:09.118Z,91.1
2018-01-29T10:51:11.619Z,91.2
2018-01-29T10:52:14.111Z,91.2
2018-01-29T10:53:16.615Z,91.2
2018-01-29T10:54:19.109Z,91.1
2018-01-29T10:55:21.602Z,90.9
2018-01-29T10:56:24.683Z,90.9
2018-01-29T10:57:27.478Z,90.8
2018-01-29T10:58:29.986Z,90.8
2018-01-29T10:59:32.470Z,90.8
2018-01-29T11:00:34.972Z,90.8
2018-01-29T11:01:37.468Z,90.8
2018-01-29T11:02:39.968Z,90.9
2018-01-29T11:03:42.466Z,90.9
2018-01-29T11:04:44.975Z,90.8
2018-01-29T11:05:47.465Z,90.7
2018-01-29T11:06:50.268Z,90.7
2018-01-29T11:07:52.765Z,90.6
2018-01-29T11:08:55.257Z,90.7
2018-01-29T11:09:57.782Z,90.7
2018-01-29T11:11:00.281Z,90.7
2018-01-29T11:12:03.065Z,90.7
2018-01-29T11:13:05.564Z,90.7
2018-01-29T11:14:08.627Z,90.7
2018-01-29T11:15:11.118Z,90.7
2018-01-29T11:16:13.624Z,90.7
2018-01-29T11:17:16.399Z,90.7
2018-01-29T11:18:18.892Z,90.9
2018-01-29T11:19:21.688Z,90.8
2018-01-29T11:20:24.191Z,90.8
2018-01-29T11:21:26.681Z,90.9
2018-01-29T11:22:29.182Z,90.9
2018-01-29T11:23:31.960Z,90.9
2018-01-29T11:24:34.460Z,90.9
2018-01-29T11:25:36.963Z,90.9
2018-01-29T11:26:39.460Z,90.9
2018-01-29T11:27:42.540Z,90.9
2018-01-29T11:28:45.332Z,90.9
2018-01-29T11:29:47.836Z,90.8
2018-01-29T11:30:50.321Z,90.7
2018-01-29T11:31:52.816Z,90.7
2018-01-29T11:32:55.322Z,90.7
2018-01-29T11:33:57.817Z,90.7
2018-01-29T11:35:00.604Z,90.9
2018-01-29T11:36:03.100Z,90.9
2018-01-29T11:37:05.596Z,90.9
2018-01-29T11:38:08.101Z,90.9
2018-01-29T11:39:10.948Z,90.9
2018-01-29T11:40:13.443Z,90.9
2018-01-29T11:41:15.950Z,90.9
2018-01-29T11:42:18.443Z,91
2018-01-29T11:43:20.942Z,91
2018-01-29T11:44:23.443Z,91
2018-01-29T11:45:25.936Z,90.9
2018-01-29T11:46:28.438Z,90.9
2018-01-29T11:47:31.224Z,90.9
2018-01-29T11:48:33.718Z,90.9
2018-01-29T11:49:36.221Z,90.8
2018-01-29T11:50:38.724Z,90.9
2018-01-29T11:51:41.496Z,90.9
2018-01-29T11:52:44.286Z,90.8
2018-01-29T11:53:46.781Z,90.7
2018-01-29T11:54:49.280Z,90.8
2018-01-29T11:55:51.775Z,90.7
2018-01-29T11:56:54.564Z,90.8
2018-01-29T11:57:57.358Z,90.8
2018-01-29T11:58:59.850Z,90.9
2018-01-29T12:00:02.354Z,90.9
2018-01-29T12:01:04.850Z,90.9
2018-01-29T12:02:07.339Z,90.9
2018-01-29T12:03:10.122Z,90.9
2018-01-29T12:04:12.925Z,91
2018-01-29T12:05:15.412Z,91.1
2018-01-29T12:06:17.907Z,91.1
2018-01-29T12:07:20.408Z,91.1
2018-01-29T12:08:22.896Z,91.1
2018-01-29T12:09:25.396Z,91.1
2018-01-29T12:10:27.895Z,91.1
2018-01-29T12:11:30.384Z,91
2018-01-29T12:12:32.888Z,91.1
2018-01-29T12:13:35.388Z,91.1
2018-01-29T12:14:37.883Z,91
2018-01-29T12:15:40.391Z,91
2018-01-29T12:16:43.181Z,91
2018-01-29T12:17:45.671Z,91.1
2018-01-29T12:18:48.171Z,91.1
2018-01-29T12:19:50.664Z,91.2
2018-01-29T12:20:53.165Z,91.2
2018-01-29T12:21:55.661Z,91.2
2018-01-29T12:22:58.137Z,91.1
2018-01-29T12:24:00.627Z,91.1
2018-01-29T12:25:03.141Z,91.1
2018-01-29T12:26:05.923Z,91
2018-01-29T12:27:08.416Z,91
2018-01-29T12:28:11.228Z,91
2018-01-29T12:29:13.724Z,90.9
2018-01-29T12:30:16.220Z,90.9
2018-01-29T12:31:18.715Z,90.9
2018-01-29T12:32:21.516Z,90.9
2018-01-29T12:33:23.999Z,90.9
2018-01-29T12:34:26.504Z,90.8
2018-01-29T12:35:28.998Z,90.8
2018-01-29T12:36:31.794Z,90.9
2018-01-29T12:37:34.292Z,91
2018-01-29T12:38:36.794Z,91
2018-01-29T12:39:39.281Z,91
2018-01-29T12:40:42.093Z,91.1
2018-01-29T12:41:44.597Z,91.1
2018-01-29T12:42:47.706Z,91.2
2018-01-29T12:43:50.208Z,91.2
2018-01-29T12:44:52.703Z,91.2
2018-01-29T12:45:55.197Z,91.4
2018-01-29T12:46:57.989Z,91.4
2018-01-29T12:48:00.484Z,91.3
2018-01-29T12:49:02.969Z,91.4
2018-01-29T12:50:05.479Z,91.4
2018-01-29T12:51:07.970Z,91.4
2018-01-29T12:52:10.755Z,91.4
2018-01-29T12:53:13.249Z,91.4
2018-01-29T12:54:15.742Z,91.4
2018-01-29T12:55:18.245Z,91.3
2018-01-29T12:56:20.753Z,91.3
2018-01-29T12:57:23.239Z,91.4
2018-01-29T12:58:25.742Z,91.5
2018-01-29T12:59:28.233Z,91.8
2018-01-29T13:00:30.729Z,92.2
2018-01-29T13:01:33.225Z,92.5
2018-01-29T13:02:35.714Z,92.7
2018-01-29T13:03:38.215Z,92.9
2018-01-29T13:04:40.715Z,93.2
2018-01-29T13:05:43.212Z,93.4
2018-01-29T13:06:45.715Z,93.7
2018-01-29T13:07:48.205Z,93.9
2018-01-29T13:08:50.699Z,94.1
2018-01-29T13:09:53.202Z,94.2
2018-01-29T13:10:55.697Z,94.2
2018-01-29T13:11:58.187Z,94.1
2018-01-29T13:13:00.705Z,94.1
2018-01-29T13:14:03.201Z,94.2
2018-01-29T13:15:05.682Z,94.3
2018-01-29T13:16:08.180Z,94.3
2018-01-29T13:17:10.666Z,94.3
2018-01-29T13:18:13.165Z,94.4
2018-01-29T13:19:15.658Z,94.5
2018-01-29T13:20:18.433Z,94.5
2018-01-29T13:21:20.932Z,94.5
2018-01-29T13:22:23.442Z,94.6
2018-01-29T13:23:25.936Z,94.7
2018-01-29T13:24:28.436Z,94.8
2018-01-29T13:25:30.937Z,94.9
2018-01-29T13:26:33.438Z,94.9
2018-01-29T13:27:35.928Z,94.8
2018-01-29T13:28:38.414Z,94.8
2018-01-29T13:29:41.206Z,94.8
2018-01-29T13:30:43.696Z,94.8
2018-01-29T13:31:46.192Z,94.9
2018-01-29T13:32:48.690Z,94.9
2018-01-29T13:33:51.194Z,95
2018-01-29T13:34:53.698Z,95
2018-01-29T13:35:56.204Z,94.9
2018-01-29T13:36:58.685Z,95
2018-01-29T13:38:01.180Z,95.1
2018-01-29T13:39:03.685Z,95.1
2018-01-29T13:40:06.176Z,95.1
2018-01-29T13:41:08.953Z,95.1
2018-01-29T13:42:11.450Z,95.1
2018-01-29T13:43:13.948Z,95.2
2018-01-29T13:44:16.447Z,95.3
2018-01-29T13:45:18.940Z,95.4
2018-01-29T13:46:21.432Z,95.4
2018-01-29T13:47:23.923Z,95.4
2018-01-29T13:48:26.718Z,95.4
2018-01-29T13:49:29.209Z,95.5
2018-01-29T13:50:31.711Z,95.6
2018-01-29T13:51:34.200Z,95.6
2018-01-29T13:52:36.719Z,95.5
2018-01-29T13:53:39.226Z,95.6
2018-01-29T13:54:41.748Z,95.7
2018-01-29T13:55:44.840Z,95.7
2018-01-29T13:56:47.357Z,95.6
2018-01-29T13:57:49.866Z,95.7
2018-01-29T13:58:52.372Z,95.7
2018-01-29T13:59:54.879Z,95.7